Broomfield, Colorado
Current Conditions -  °F | °C
As of 4:55 AM on Saturday 20 Dec 2014 (Local Time) from KBJC Reporting Station
Clear Clear  
Wind Chill: 28°   Ceiling: Unl
Heat Index: 36°   Visibility: 10mi
Dew Point: 18°   Wind: 10mph
Humidity: 48%   Direction: 20°NNE
Pressure: 29.99"   Gusts: NA
Location:  39.92°N, 105.06°W
Report Text: KBJC 201155Z AUTO 02009KT 10SM CLR 02/M08 A2999 RMK AO2
Loading
Personal Weather Stations






























Interactive Weather Map New forecast layout! Learn more

10-Day Weather Forecast

Advertisements
Track Severe Weather on mobile